Spink Colony, South Dakota
Current Conditions -  °F | °C
As of 4:17 PM on Monday 22 Dec 2014 (Local Time) from KHON Reporting Station
Light Snow Light Snow  
Wind Chill: 33°   Ceiling: 700
Heat Index: 33°   Visibility: 3mi
Dew Point: 32°   Wind: 0mph
Humidity: 96%   Direction: NA
Pressure: 29.44"   Gusts: NA
Location:  44.7634°N, 98.2811°W
Report Text: KHON 222217Z AUTO 00000KT 3SM -SN BR OVC007 01/00 A2944 RMK AO2 P0000 T00060000
Loading
Personal Weather Stations






























Interactive Weather Map New forecast layout! Learn more

10-Day Weather Forecast

Advertisements
Track Severe Weather on mobile